Terminal Aerodrome Forecast
Issued by NWS

Home | Current Version | Previous Version | Text Only | Print | Product List | Glossary On
Versions: 1 2 3 4 5 6 7 8 9 10 11 12 13 14 15 16 17 18 19 20 21 22 23 24 25 26 27 28 29 30 31
000
FTAK31 PAFA 272338
TAFAOM
TAF
PAOM 272338Z 2800/2824 31003KT P6SM OVC020
     FM280800 27008KT P6SM -SHRA SCT007 OVC025=

USA.gov is the U.S. government's official web portal to all federal, state and local government web resources and services.